Rafha, Saudi Arabia
Current Conditions -  °F | °C
As of 4:00 AM on Sunday 26 Oct 2014 (Local Time) from OERF Reporting Station
Clear Clear  
Wind Chill: 70°   Ceiling: Unl
Heat Index: 70°   Visibility: 6mi
Dew Point: 48°   Wind: 12mph
Humidity: 46%   Direction: 70°ENE
Pressure: 29.94"   Gusts: NA
Location:  29.63°N, 43.51°E
Report Text: OERF 260100Z 07010KT CAVOK 21/09 Q1014
Loading
Personal Weather Stations






























Interactive Weather Map
Tropical Storm Tracking
New forecast layout! Learn more

10-Day Weather Forecast

Advertisements
Track Severe Weather on mobile